Time;durP1;ratioP1;P1;durP2;ratioP2;P2;SDS_P1;SDS_P2;PMS_P1;PMS_P2;Temp;Humidity;BMP_temperature;BMP_pressure;BME280_temperature;BME280_humidity;BME280_pressure;Samples;Min_cycle;Max_cycle;Signal;HPM_P1;HPM_P2
2024/01/11 00:01:14;;;;;;;77.97;25.70;;;-3.90;99.90;;;;;;4982585;28;20229;-61
2024/01/11 00:03:40;;;;;;;91.10;28.60;;;-3.90;99.90;;;;;;4986754;28;20936;-61
2024/01/11 00:06:05;;;;;;;86.73;28.20;;;-3.90;99.90;;;;;;4985424;28;20222;-60
2024/01/11 00:08:31;;;;;;;78.57;27.47;;;-3.90;99.90;;;;;;4987278;28;20190;-60
2024/01/11 00:10:57;;;;;;;92.37;25.67;;;-3.90;99.90;;;;;;4985662;28;20190;-61
2024/01/11 00:13:22;;;;;;;75.60;25.60;;;-3.80;99.90;;;;;;4985376;28;20832;-62
2024/01/11 00:15:48;;;;;;;88.30;27.03;;;-3.90;99.90;;;;;;4984458;28;20231;-60
2024/01/11 00:18:13;;;;;;;106.90;28.80;;;-3.90;99.90;;;;;;4983262;28;20566;-63
2024/01/11 00:20:39;;;;;;;89.63;27.47;;;-3.90;99.90;;;;;;4985630;28;20208;-60
2024/01/11 00:23:04;;;;;;;109.87;29.00;;;-3.90;99.90;;;;;;4985068;28;20186;-62
2024/01/11 00:25:30;;;;;;;100.93;29.97;;;-3.90;99.90;;;;;;4984059;28;20416;-61
2024/01/11 00:27:56;;;;;;;137.07;27.30;;;-3.90;99.90;;;;;;4981522;28;20211;-62
2024/01/11 00:30:23;;;;;;;94.93;26.03;;;-3.90;99.90;;;;;;4986061;28;20179;-62
2024/01/11 00:32:48;;;;;;;97.47;23.80;;;-4.00;99.90;;;;;;4980178;28;20186;-59
2024/01/11 00:35:14;;;;;;;78.23;24.00;;;-4.00;99.90;;;;;;4987453;28;20537;-61
2024/01/11 00:37:40;;;;;;;129.47;27.10;;;-4.10;99.90;;;;;;4982556;28;20207;-61
2024/01/11 00:40:06;;;;;;;84.70;26.53;;;-4.10;99.90;;;;;;4987161;28;20286;-62
2024/01/11 00:42:31;;;;;;;72.30;26.07;;;-4.10;99.90;;;;;;4983554;28;20183;-61
2024/01/11 00:44:57;;;;;;;61.90;24.17;;;-4.10;99.90;;;;;;4984558;28;20877;-60
2024/01/11 00:47:22;;;;;;;103.40;27.60;;;-4.20;99.90;;;;;;4979723;28;20775;-60
2024/01/11 00:49:48;;;;;;;77.57;26.70;;;-4.20;99.90;;;;;;4986360;28;20193;-60
2024/01/11 00:52:14;;;;;;;85.73;27.03;;;-4.20;99.90;;;;;;4986403;28;20270;-62
2024/01/11 00:54:40;;;;;;;91.97;28.57;;;-4.20;99.90;;;;;;4982934;28;20637;-62
2024/01/11 00:57:05;;;;;;;67.10;26.47;;;-4.20;99.90;;;;;;4981631;28;20206;-62
2024/01/11 00:59:31;;;;;;;75.20;27.30;;;-4.20;99.90;;;;;;4980995;28;20418;-61
2024/01/11 01:01:56;;;;;;;91.23;28.43;;;-4.20;99.90;;;;;;4984955;28;20212;-62
2024/01/11 01:04:22;;;;;;;77.03;28.67;;;-4.20;99.90;;;;;;4986672;28;20180;-61
2024/01/11 01:06:48;;;;;;;78.97;28.00;;;-4.20;99.90;;;;;;4962666;28;20215;-61
2024/01/11 01:09:13;;;;;;;82.37;28.03;;;-4.20;99.90;;;;;;4981792;28;20203;-62
2024/01/11 01:11:39;;;;;;;77.77;25.97;;;-4.10;99.90;;;;;;4981951;28;20188;-62
2024/01/11 01:14:05;;;;;;;86.43;27.70;;;-4.10;99.90;;;;;;4984229;28;20290;-61
2024/01/11 01:16:30;;;;;;;70.67;29.33;;;-4.10;99.90;;;;;;4982203;28;20685;-60
2024/01/11 01:18:56;;;;;;;91.50;27.47;;;-4.10;99.90;;;;;;4983903;28;20540;-59
2024/01/11 01:21:22;;;;;;;87.23;28.60;;;-4.10;99.90;;;;;;4986673;28;20524;-62
2024/01/11 01:23:47;;;;;;;81.60;27.93;;;-4.10;99.90;;;;;;4985416;28;20191;-61
2024/01/11 01:26:13;;;;;;;74.43;26.30;;;-4.10;99.90;;;;;;4985072;28;20240;-61
2024/01/11 01:28:39;;;;;;;96.57;28.57;;;-4.10;99.90;;;;;;4985495;28;20201;-62
2024/01/11 01:31:05;;;;;;;141.30;28.30;;;-4.10;99.90;;;;;;4989663;28;20196;-62
2024/01/11 01:33:31;;;;;;;154.47;28.90;;;-4.10;99.90;;;;;;4990286;28;20420;-60
2024/01/11 01:35:56;;;;;;;103.90;28.90;;;-4.20;99.90;;;;;;4984980;28;20204;-61
2024/01/11 01:38:22;;;;;;;129.00;28.40;;;-4.20;99.90;;;;;;4983771;28;20173;-61
2024/01/11 01:40:48;;;;;;;92.23;28.10;;;-4.20;99.90;;;;;;4980738;28;20202;-61
2024/01/11 01:43:13;;;;;;;89.60;25.83;;;-4.20;99.90;;;;;;4983788;28;20180;-62
2024/01/11 01:45:39;;;;;;;134.63;27.90;;;-4.30;99.90;;;;;;4986988;28;20185;-62
2024/01/11 01:48:04;;;;;;;76.43;25.83;;;-4.30;99.90;;;;;;4987718;28;20179;-60
2024/01/11 01:50:31;;;;;;;97.23;27.90;;;-4.30;99.90;;;;;;4986423;28;20219;-62
2024/01/11 01:52:57;;;;;;;86.67;28.27;;;-4.30;99.90;;;;;;4985730;28;20681;-62
2024/01/11 01:55:24;;;;;;;78.73;25.90;;;-4.30;99.90;;;;;;4989991;28;20866;-63
2024/01/11 01:57:51;;;;;;;92.93;26.77;;;-4.30;99.90;;;;;;4988539;28;20453;-63
2024/01/11 02:00:18;;;;;;;79.07;25.53;;;-4.30;99.90;;;;;;4985555;28;20470;-60
2024/01/11 02:02:47;;;;;;;117.67;29.63;;;-4.40;99.90;;;;;;4982702;28;20464;-62
2024/01/11 02:05:14;;;;;;;119.80;29.73;;;-4.40;99.90;;;;;;4984559;28;20438;-62
2024/01/11 02:07:40;;;;;;;77.43;27.00;;;-4.40;99.90;;;;;;4984676;28;20483;-62
2024/01/11 02:10:07;;;;;;;79.10;26.57;;;-4.40;99.90;;;;;;4987557;28;20434;-62
2024/01/11 02:12:35;;;;;;;139.47;28.30;;;-4.50;99.90;;;;;;4984794;28;20450;-62
2024/01/11 02:15:03;;;;;;;88.40;26.00;;;-4.50;99.90;;;;;;4984245;28;20668;-61
2024/01/11 02:17:29;;;;;;;80.60;26.30;;;-4.60;99.90;;;;;;4988187;28;20872;-62
2024/01/11 02:19:54;;;;;;;89.57;24.73;;;-4.60;99.90;;;;;;4986132;28;21014;-62
2024/01/11 02:22:34;;;;;;;75.83;25.20;;;-4.60;99.90;;;;;;4985917;28;20431;-61
2024/01/11 02:25:00;;;;;;;99.17;26.90;;;-4.60;99.90;;;;;;4985287;28;20174;-59
2024/01/11 02:27:25;;;;;;;89.73;25.77;;;-4.70;99.90;;;;;;4987912;28;20437;-65
2024/01/11 02:29:51;;;;;;;59.73;24.67;;;-4.70;99.90;;;;;;4986982;28;20180;-61
2024/01/11 02:32:17;;;;;;;72.93;26.03;;;-4.70;99.90;;;;;;4988026;28;20257;-60
2024/01/11 02:34:43;;;;;;;60.30;21.83;;;-4.70;99.90;;;;;;4980830;28;20206;-62
2024/01/11 02:37:08;;;;;;;66.47;24.10;;;-4.70;99.90;;;;;;4983094;28;20254;-61
2024/01/11 02:39:34;;;;;;;70.33;25.10;;;-4.70;99.90;;;;;;4984763;28;20419;-62
2024/01/11 02:42:00;;;;;;;219.97;27.83;;;-4.70;99.90;;;;;;4979573;28;20205;-60
2024/01/11 02:44:26;;;;;;;91.93;26.20;;;-4.70;99.90;;;;;;4985013;28;20955;-62
2024/01/11 02:46:51;;;;;;;68.00;24.07;;;-4.70;99.90;;;;;;4985758;28;20205;-60
2024/01/11 02:49:17;;;;;;;75.67;25.30;;;-4.70;99.90;;;;;;4988151;28;20182;-59
2024/01/11 02:51:43;;;;;;;91.33;28.20;;;-4.70;99.90;;;;;;4988651;28;20179;-61
2024/01/11 02:54:08;;;;;;;113.53;27.27;;;-4.70;99.90;;;;;;4983350;28;20191;-62
2024/01/11 02:56:34;;;;;;;105.73;28.97;;;-4.70;99.90;;;;;;4981108;28;20214;-61
2024/01/11 02:58:59;;;;;;;87.47;27.07;;;-4.80;99.90;;;;;;4983982;28;20202;-60
2024/01/11 03:01:25;;;;;;;85.70;26.33;;;-4.80;99.90;;;;;;4986329;28;20208;-60
2024/01/11 03:03:51;;;;;;;65.30;25.30;;;-4.80;99.90;;;;;;4979638;28;20654;-61
2024/01/11 03:06:21;;;;;;;105.67;25.47;;;-4.80;99.90;;;;;;4983978;28;20455;-60
2024/01/11 03:08:47;;;;;;;70.93;26.63;;;-4.80;99.90;;;;;;4982718;28;20174;-61
2024/01/11 03:11:12;;;;;;;62.70;27.03;;;-4.80;99.90;;;;;;4978573;28;20434;-60
2024/01/11 03:13:38;;;;;;;72.60;25.90;;;-4.80;99.90;;;;;;4986391;28;20449;-63
2024/01/11 03:16:05;;;;;;;66.40;25.10;;;-4.80;99.90;;;;;;4985891;28;20206;-60
2024/01/11 03:18:31;;;;;;;75.07;28.40;;;-4.70;99.90;;;;;;4982917;28;20185;-62
2024/01/11 03:20:57;;;;;;;81.57;27.80;;;-4.70;99.90;;;;;;4986324;28;20466;-62
2024/01/11 03:23:22;;;;;;;69.93;27.57;;;-4.70;99.90;;;;;;4986027;28;20410;-62
2024/01/11 03:25:48;;;;;;;80.80;27.97;;;-4.70;99.90;;;;;;4984340;28;20412;-61
2024/01/11 03:28:13;;;;;;;75.30;28.43;;;-4.70;99.90;;;;;;4984622;28;20182;-61
2024/01/11 03:30:39;;;;;;;70.80;26.07;;;-4.70;99.90;;;;;;4984642;28;20182;-61
2024/01/11 03:33:05;;;;;;;84.93;24.80;;;-4.70;99.90;;;;;;4980880;28;20215;-61
2024/01/11 03:35:31;;;;;;;72.07;25.47;;;-4.70;99.90;;;;;;4986229;28;20182;-62
2024/01/11 03:37:56;;;;;;;68.03;26.00;;;-4.70;99.90;;;;;;4981086;28;20446;-61
2024/01/11 03:40:22;;;;;;;97.33;26.43;;;-4.70;99.90;;;;;;4980153;28;20199;-60
2024/01/11 03:42:47;;;;;;;59.60;24.97;;;-4.70;99.90;;;;;;4983129;28;20235;-59
2024/01/11 03:45:13;;;;;;;76.03;24.70;;;-4.80;99.90;;;;;;4985209;28;20176;-62
2024/01/11 03:47:39;;;;;;;67.77;24.87;;;-4.80;99.90;;;;;;4982178;28;20282;-62
2024/01/11 03:50:05;;;;;;;83.87;24.93;;;-4.90;99.90;;;;;;4986889;28;20649;-61
2024/01/11 03:52:30;;;;;;;67.70;26.33;;;-4.90;99.90;;;;;;4986041;28;20271;-60
2024/01/11 03:54:56;;;;;;;139.57;28.17;;;-4.90;99.90;;;;;;4992072;28;20456;-62
2024/01/11 03:57:21;;;;;;;59.07;24.80;;;-5.00;99.90;;;;;;4992231;28;20191;-62
2024/01/11 03:59:47;;;;;;;93.07;26.63;;;-5.00;99.90;;;;;;4992519;28;20265;-60
2024/01/11 04:02:12;;;;;;;67.27;26.20;;;-5.10;99.90;;;;;;4991039;28;20193;-61
2024/01/11 04:04:38;;;;;;;71.63;27.53;;;-5.10;99.90;;;;;;4983948;28;20179;-62
2024/01/11 04:07:04;;;;;;;98.33;27.50;;;-5.10;99.90;;;;;;4983914;28;20199;-60
2024/01/11 04:09:29;;;;;;;72.87;24.73;;;-5.10;99.90;;;;;;4985495;28;20171;-61
2024/01/11 04:11:55;;;;;;;133.33;28.70;;;-5.10;99.90;;;;;;4983440;28;20216;-61
2024/01/11 04:14:21;;;;;;;265.13;30.63;;;-5.20;99.90;;;;;;4986725;28;20220;-59
2024/01/11 04:16:46;;;;;;;76.13;25.53;;;-5.20;99.90;;;;;;4983130;28;20237;-61
2024/01/11 04:19:12;;;;;;;76.63;26.63;;;-5.20;99.90;;;;;;4983484;28;20211;-60
2024/01/11 04:21:40;;;;;;;65.83;24.40;;;-5.30;99.90;;;;;;4986166;28;20210;-59
2024/01/11 04:24:06;;;;;;;73.43;24.70;;;-5.20;99.90;;;;;;4986231;28;20429;-63
2024/01/11 04:26:32;;;;;;;68.73;25.43;;;-5.20;99.90;;;;;;4985008;28;20437;-60
2024/01/11 04:28:59;;;;;;;67.90;25.50;;;-5.20;99.90;;;;;;4985194;28;20192;-61
2024/01/11 04:31:25;;;;;;;67.47;25.77;;;-5.20;99.90;;;;;;4987206;28;20418;-61
2024/01/11 04:33:51;;;;;;;77.33;27.40;;;-5.20;99.90;;;;;;4986618;28;20400;-61
2024/01/11 04:36:17;;;;;;;63.17;27.27;;;-5.10;99.90;;;;;;4978026;28;20849;-60
2024/01/11 04:38:44;;;;;;;67.17;24.70;;;-5.10;99.90;;;;;;4980415;28;20268;-63
2024/01/11 04:41:10;;;;;;;67.70;25.27;;;-5.10;99.90;;;;;;4981915;28;20210;-60
2024/01/11 04:43:39;;;;;;;74.00;26.47;;;-5.10;99.90;;;;;;4982613;28;20457;-61
2024/01/11 04:46:18;;;;;;;65.93;26.93;;;-5.00;99.90;;;;;;4985566;28;20438;-61
2024/01/11 04:48:44;;;;;;;65.93;26.27;;;-5.00;99.90;;;;;;4986523;28;20420;-61
2024/01/11 04:51:11;;;;;;;72.90;27.40;;;-5.00;99.90;;;;;;4980033;28;20435;-60
2024/01/11 04:53:39;;;;;;;65.93;27.27;;;-5.00;99.90;;;;;;4980909;28;20456;-62
2024/01/11 04:56:06;;;;;;;71.80;27.73;;;-5.00;99.90;;;;;;4977432;28;20580;-62
2024/01/11 04:58:32;;;;;;;74.40;28.57;;;-5.00;99.90;;;;;;4977286;28;21068;-60
2024/01/11 05:00:57;;;;;;;66.40;24.97;;;-5.00;99.90;;;;;;4981580;28;20484;-62
2024/01/11 05:03:23;;;;;;;77.07;26.93;;;-5.00;99.90;;;;;;4983387;28;20171;-59
2024/01/11 05:05:48;;;;;;;70.73;27.00;;;-5.00;99.90;;;;;;4985278;28;20187;-63
2024/01/11 05:08:14;;;;;;;73.30;26.60;;;-5.00;99.90;;;;;;4979961;28;20635;-63
2024/01/11 05:10:40;;;;;;;69.07;27.27;;;-5.00;99.90;;;;;;4989106;28;20235;-61
2024/01/11 05:13:05;;;;;;;65.00;26.00;;;-5.00;99.90;;;;;;4986780;28;20267;-61
2024/01/11 05:15:31;;;;;;;78.40;27.50;;;-5.00;99.90;;;;;;4972872;28;22125;-59
2024/01/11 05:17:56;;;;;;;66.80;26.73;;;-5.00;99.90;;;;;;4975172;28;20206;-63
2024/01/11 05:20:22;;;;;;;70.73;25.57;;;-5.00;99.90;;;;;;4986898;28;20670;-62
2024/01/11 05:22:48;;;;;;;80.00;26.30;;;-5.00;99.90;;;;;;4973889;28;20225;-60
2024/01/11 05:25:14;;;;;;;74.73;26.67;;;-5.00;99.90;;;;;;4977921;28;20728;-59
2024/01/11 05:27:39;;;;;;;69.67;25.90;;;-5.10;99.90;;;;;;4983367;28;20233;-60
2024/01/11 05:30:06;;;;;;;67.47;26.40;;;-5.10;99.90;;;;;;4982841;28;20472;-60
2024/01/11 05:32:31;;;;;;;166.73;27.90;;;-5.10;99.90;;;;;;4980788;28;20200;-58
2024/01/11 05:34:57;;;;;;;69.50;26.73;;;-5.10;99.90;;;;;;4982148;28;20445;-60
2024/01/11 05:37:23;;;;;;;74.03;27.70;;;-5.10;99.90;;;;;;4973727;28;20301;-60
2024/01/11 05:39:48;;;;;;;74.77;26.40;;;-5.10;99.90;;;;;;4984616;28;20218;-59
2024/01/11 05:42:14;;;;;;;75.53;27.97;;;-5.20;99.90;;;;;;4987043;28;20185;-58
2024/01/11 05:44:40;;;;;;;70.20;25.80;;;-5.10;99.90;;;;;;4982559;28;20221;-58
2024/01/11 05:47:06;;;;;;;69.23;26.70;;;-5.20;99.90;;;;;;4986441;28;20205;-58
2024/01/11 05:49:31;;;;;;;104.17;29.00;;;-5.20;99.90;;;;;;4986519;28;20449;-60
2024/01/11 05:51:57;;;;;;;80.83;27.20;;;-5.20;99.90;;;;;;4984651;28;20192;-60
2024/01/11 05:54:23;;;;;;;81.93;27.20;;;-5.20;99.90;;;;;;4989426;28;20182;-60
2024/01/11 05:56:49;;;;;;;71.23;27.10;;;-5.20;99.90;;;;;;4984610;28;20298;-60
2024/01/11 05:59:15;;;;;;;81.30;26.83;;;-5.30;99.90;;;;;;4988082;28;20178;-60
2024/01/11 06:01:42;;;;;;;65.73;25.60;;;-5.30;99.90;;;;;;4984989;28;20462;-60
2024/01/11 06:04:08;;;;;;;110.90;25.87;;;-5.30;99.90;;;;;;4987535;28;20282;-60
2024/01/11 06:06:33;;;;;;;91.53;25.33;;;-5.20;99.90;;;;;;4980910;28;20541;-58
2024/01/11 06:08:59;;;;;;;104.47;27.03;;;-5.30;99.90;;;;;;4986869;28;20179;-62
2024/01/11 06:11:25;;;;;;;65.33;25.43;;;-5.40;99.90;;;;;;4980803;28;20301;-60
2024/01/11 06:13:50;;;;;;;61.73;25.40;;;-5.40;99.90;;;;;;4986628;28;20205;-59
2024/01/11 06:16:16;;;;;;;71.13;26.70;;;-5.40;99.90;;;;;;4987287;28;20241;-58
2024/01/11 06:18:41;;;;;;;68.60;25.53;;;-5.40;99.90;;;;;;4986215;28;20699;-62
2024/01/11 06:21:07;;;;;;;68.27;25.60;;;-5.40;99.90;;;;;;4988229;28;20206;-61
2024/01/11 06:23:32;;;;;;;100.30;28.50;;;-5.40;99.90;;;;;;4985513;28;20186;-58
2024/01/11 06:25:58;;;;;;;68.57;24.97;;;-5.40;99.90;;;;;;4988338;28;20213;-60
2024/01/11 06:28:24;;;;;;;64.20;25.93;;;-5.50;99.90;;;;;;4987708;28;20765;-61
2024/01/11 06:30:49;;;;;;;83.30;26.87;;;-5.50;99.90;;;;;;4988369;28;20190;-60
2024/01/11 06:33:15;;;;;;;69.10;27.63;;;-5.40;99.90;;;;;;4987125;28;20659;-60
2024/01/11 06:35:40;;;;;;;102.60;27.17;;;-5.40;99.90;;;;;;4985514;28;20181;-60
2024/01/11 06:38:06;;;;;;;87.20;30.03;;;-5.40;99.90;;;;;;4982992;28;20189;-60
2024/01/11 06:40:31;;;;;;;74.83;28.13;;;-5.40;99.90;;;;;;4986463;28;20199;-59
2024/01/11 06:42:57;;;;;;;80.77;29.80;;;-5.40;99.90;;;;;;4987469;28;20183;-60
2024/01/11 06:45:23;;;;;;;69.83;26.17;;;-5.40;99.90;;;;;;4986421;28;20187;-59
2024/01/11 06:47:48;;;;;;;73.47;27.50;;;-5.50;99.90;;;;;;4986075;28;20207;-59
2024/01/11 06:50:14;;;;;;;83.00;27.30;;;-5.40;99.90;;;;;;4989125;28;20175;-61
2024/01/11 06:52:40;;;;;;;72.10;26.90;;;-5.50;99.90;;;;;;4987994;28;20191;-61
2024/01/11 06:55:06;;;;;;;75.33;28.17;;;-5.50;99.90;;;;;;4988044;28;20179;-61
2024/01/11 06:57:32;;;;;;;76.70;28.50;;;-5.50;99.90;;;;;;4982255;28;20209;-60
2024/01/11 06:59:57;;;;;;;80.70;27.80;;;-5.40;99.90;;;;;;4985209;28;20425;-61
2024/01/11 07:02:23;;;;;;;71.10;28.23;;;-5.40;99.90;;;;;;4983656;28;20593;-59
2024/01/11 07:04:48;;;;;;;81.37;28.20;;;-5.40;99.90;;;;;;4985459;28;20276;-60
2024/01/11 07:07:14;;;;;;;84.80;30.57;;;-5.40;99.90;;;;;;4980485;28;20199;-61
2024/01/11 07:09:39;;;;;;;74.73;27.93;;;-5.40;99.90;;;;;;4986867;28;20203;-60
2024/01/11 07:12:05;;;;;;;82.43;28.37;;;-5.40;99.90;;;;;;4987961;28;20176;-60
2024/01/11 07:14:31;;;;;;;72.43;28.43;;;-5.40;99.90;;;;;;4988708;28;20685;-60
2024/01/11 07:16:57;;;;;;;68.70;27.00;;;-5.40;99.90;;;;;;4985558;28;20493;-59
2024/01/11 07:19:23;;;;;;;73.97;27.67;;;-5.40;99.90;;;;;;4986006;28;20432;-59
2024/01/11 07:21:48;;;;;;;77.67;28.60;;;-5.40;99.90;;;;;;4985788;28;20286;-61
2024/01/11 07:24:15;;;;;;;79.17;29.83;;;-5.40;99.90;;;;;;4984560;28;20190;-59
2024/01/11 07:26:41;;;;;;;79.40;29.30;;;-5.40;99.90;;;;;;4980353;28;20214;-59
2024/01/11 07:29:07;;;;;;;107.93;32.93;;;-5.40;99.90;;;;;;4987738;28;20927;-60
2024/01/11 07:31:32;;;;;;;86.43;30.53;;;-5.40;99.90;;;;;;4987174;28;20414;-61
2024/01/11 07:33:59;;;;;;;71.03;28.73;;;-5.40;99.90;;;;;;4987866;28;20894;-60
2024/01/11 07:36:24;;;;;;;84.50;29.70;;;-5.40;99.90;;;;;;4984715;28;20239;-60
2024/01/11 07:38:50;;;;;;;88.93;28.10;;;-5.40;99.90;;;;;;4987852;28;20418;-60
2024/01/11 07:41:16;;;;;;;124.20;31.63;;;-5.40;99.90;;;;;;4985036;28;20203;-59
2024/01/11 07:43:43;;;;;;;100.20;31.23;;;-5.40;99.90;;;;;;4985904;28;20649;-60
2024/01/11 07:46:09;;;;;;;77.97;28.37;;;-5.40;99.90;;;;;;4985100;28;20195;-60
2024/01/11 07:48:34;;;;;;;76.30;29.17;;;-5.40;99.90;;;;;;4985650;28;20434;-59
2024/01/11 07:51:00;;;;;;;128.43;28.10;;;-5.50;99.90;;;;;;4986952;28;20466;-60
2024/01/11 07:53:26;;;;;;;83.27;30.20;;;-5.50;99.90;;;;;;4981913;28;20182;-61
2024/01/11 07:55:52;;;;;;;100.10;31.00;;;-5.50;99.90;;;;;;4986352;28;20190;-60
2024/01/11 07:58:18;;;;;;;94.67;29.37;;;-5.50;99.90;;;;;;4985287;28;20215;-60
2024/01/11 08:00:44;;;;;;;96.17;29.87;;;-5.50;99.90;;;;;;4979422;28;20454;-60
2024/01/11 08:03:10;;;;;;;79.20;28.37;;;-5.50;99.90;;;;;;4979743;28;20444;-61
2024/01/11 08:05:36;;;;;;;109.63;30.77;;;-5.50;99.90;;;;;;4982984;28;20433;-59
2024/01/11 08:08:03;;;;;;;104.87;30.47;;;-5.50;99.90;;;;;;4984921;28;20199;-59
2024/01/11 08:10:30;;;;;;;79.63;31.73;;;-5.50;99.90;;;;;;4983573;28;20171;-60
2024/01/11 08:12:56;;;;;;;81.20;32.00;;;-5.50;99.90;;;;;;4982632;28;20429;-59
2024/01/11 08:15:22;;;;;;;115.80;32.30;;;-5.50;99.90;;;;;;4988252;28;20986;-59
2024/01/11 08:17:48;;;;;;;86.43;30.10;;;-5.50;99.90;;;;;;4979943;28;20727;-59
2024/01/11 08:20:14;;;;;;;119.60;31.07;;;-5.40;99.90;;;;;;4984904;28;20197;-60
2024/01/11 08:22:43;;;;;;;100.53;31.67;;;-5.40;99.90;;;;;;4984899;28;20901;-60
2024/01/11 08:25:09;;;;;;;105.50;33.00;;;-5.30;99.90;;;;;;4982424;28;20592;-61
2024/01/11 08:27:35;;;;;;;115.70;34.97;;;-5.30;99.90;;;;;;4978968;28;20461;-61
2024/01/11 08:30:02;;;;;;;113.27;29.07;;;-5.30;99.90;;;;;;4981163;28;20419;-61
2024/01/11 08:32:28;;;;;;;95.30;31.87;;;-5.30;99.90;;;;;;4982326;28;20474;-63
2024/01/11 08:34:54;;;;;;;94.57;28.40;;;-5.30;99.90;;;;;;4984384;28;20422;-61
2024/01/11 08:37:19;;;;;;;92.23;30.80;;;-5.30;99.90;;;;;;4983202;28;20806;-60
2024/01/11 08:39:46;;;;;;;86.70;30.63;;;-5.30;99.90;;;;;;4990334;28;20430;-59
2024/01/11 08:42:12;;;;;;;87.93;31.37;;;-5.30;99.90;;;;;;4990089;28;20790;-60
2024/01/11 08:44:45;;;;;;;98.17;31.40;;;-5.30;99.90;;;;;;4991940;28;20414;-61
2024/01/11 08:47:10;;;;;;;84.57;28.97;;;-5.30;99.90;;;;;;4988604;28;20529;-59
2024/01/11 08:49:39;;;;;;;92.97;29.90;;;-5.30;99.90;;;;;;4988420;28;20500;-61
2024/01/11 08:52:05;;;;;;;80.07;31.17;;;-5.20;99.90;;;;;;4987282;28;20194;-60
2024/01/11 08:54:32;;;;;;;109.57;29.10;;;-5.20;99.90;;;;;;4986464;28;20446;-60
2024/01/11 08:56:58;;;;;;;89.57;30.70;;;-5.10;99.90;;;;;;4984866;28;20457;-60
2024/01/11 08:59:25;;;;;;;93.80;32.30;;;-5.10;99.90;;;;;;4990251;28;20430;-60
2024/01/11 09:01:51;;;;;;;85.63;31.23;;;-5.00;99.90;;;;;;4988059;28;20214;-59
2024/01/11 09:04:17;;;;;;;88.63;31.90;;;-5.00;99.90;;;;;;4982318;28;20497;-60
2024/01/11 09:06:43;;;;;;;89.60;33.50;;;-4.90;99.90;;;;;;4982436;28;20934;-60
2024/01/11 09:09:10;;;;;;;98.07;31.53;;;-4.90;99.90;;;;;;4980560;28;20432;-59
2024/01/11 09:11:35;;;;;;;77.47;28.87;;;-4.90;99.90;;;;;;4985568;28;20616;-61
2024/01/11 09:14:02;;;;;;;82.63;31.10;;;-4.80;99.90;;;;;;4983017;28;20854;-59
2024/01/11 09:16:28;;;;;;;87.00;30.90;;;-4.80;99.90;;;;;;4983392;28;20204;-60
2024/01/11 09:18:54;;;;;;;91.07;30.73;;;-4.70;99.90;;;;;;4986336;28;20397;-61
2024/01/11 09:21:20;;;;;;;78.30;31.27;;;-4.70;99.90;;;;;;4980920;28;21121;-58
2024/01/11 09:23:45;;;;;;;96.10;32.33;;;-4.70;99.90;;;;;;4981666;28;20239;-60
2024/01/11 09:26:12;;;;;;;85.60;31.80;;;-4.60;99.90;;;;;;4981732;28;20210;-62
2024/01/11 09:28:37;;;;;;;76.03;31.60;;;-4.50;99.90;;;;;;4980836;28;20172;-60
2024/01/11 09:31:03;;;;;;;91.10;31.20;;;-4.40;99.90;;;;;;4983756;28;20427;-62
2024/01/11 09:33:29;;;;;;;84.80;31.33;;;-4.40;99.90;;;;;;4986201;28;20194;-60
2024/01/11 09:35:56;;;;;;;88.17;31.43;;;-4.30;99.90;;;;;;4981342;28;20504;-62
2024/01/11 09:38:22;;;;;;;100.57;31.47;;;-4.20;99.90;;;;;;4981030;28;20253;-61
2024/01/11 09:41:03;;;;;;;80.93;30.97;;;-4.00;99.90;;;;;;4985821;28;20457;-60
2024/01/11 09:43:29;;;;;;;83.77;32.97;;;-4.00;99.90;;;;;;4978776;28;20429;-63
2024/01/11 09:45:56;;;;;;;83.63;33.17;;;-3.90;99.90;;;;;;4979161;28;20413;-61
2024/01/11 09:48:24;;;;;;;88.33;31.20;;;-3.80;99.90;;;;;;4982755;28;20436;-60
2024/01/11 09:50:52;;;;;;;88.97;33.10;;;-3.80;99.90;;;;;;4985783;28;20429;-59
2024/01/11 09:53:20;;;;;;;84.63;30.63;;;-3.80;99.90;;;;;;4986539;28;20443;-61
2024/01/11 09:55:46;;;;;;;89.90;31.57;;;-3.70;99.90;;;;;;4983973;28;20439;-59
2024/01/11 09:58:14;;;;;;;79.80;32.37;;;-3.70;99.90;;;;;;4987794;28;20515;-60
2024/01/11 10:00:40;;;;;;;72.27;30.10;;;-3.60;99.90;;;;;;4987688;28;20456;-61
2024/01/11 10:03:06;;;;;;;88.00;31.83;;;-3.50;99.90;;;;;;4987651;28;20413;-59
2024/01/11 10:05:35;;;;;;;70.30;30.87;;;-3.40;99.90;;;;;;4984875;28;20956;-61
2024/01/11 10:08:01;;;;;;;88.70;30.37;;;-3.30;99.90;;;;;;4988921;28;20497;-58
2024/01/11 10:10:27;;;;;;;81.27;31.53;;;-3.20;99.90;;;;;;4988137;28;20525;-59
2024/01/11 10:12:55;;;;;;;84.90;33.63;;;-3.10;99.90;;;;;;4984577;28;1090977;-60
2024/01/11 10:15:24;;;;;;;95.30;34.13;;;-3.10;99.90;;;;;;4985178;28;20516;-57
2024/01/11 10:17:50;;;;;;;79.97;32.23;;;-3.00;99.90;;;;;;4979606;28;20522;-61
2024/01/11 10:20:16;;;;;;;86.57;32.37;;;-2.80;99.90;;;;;;4982579;28;20817;-61
2024/01/11 10:22:46;;;;;;;84.07;34.07;;;-2.70;99.90;;;;;;4982699;28;20188;-58
2024/01/11 10:25:13;;;;;;;85.10;33.10;;;-2.60;99.90;;;;;;4988752;28;20421;-58
2024/01/11 10:27:43;;;;;;;82.60;33.00;;;-2.50;99.90;;;;;;4983438;28;20433;-59
2024/01/11 10:30:10;;;;;;;87.23;31.23;;;-2.50;99.90;;;;;;4986261;28;20418;-57
2024/01/11 10:32:36;;;;;;;86.47;34.60;;;-2.40;99.90;;;;;;4982110;28;20426;-59
2024/01/11 10:35:05;;;;;;;88.50;35.17;;;-2.30;99.90;;;;;;4988150;28;20453;-60
2024/01/11 10:37:34;;;;;;;82.87;33.50;;;-2.20;99.90;;;;;;4983814;28;20281;-59
2024/01/11 10:40:09;;;;;;;94.90;34.53;;;-2.10;99.90;;;;;;4979060;28;20492;-61
2024/01/11 10:42:37;;;;;;;98.80;36.10;;;-2.00;99.90;;;;;;4981089;28;20976;-59
2024/01/11 10:45:07;;;;;;;87.23;34.57;;;-1.90;99.90;;;;;;4980843;28;21241;-61
2024/01/11 10:47:35;;;;;;;80.20;32.83;;;-1.70;99.90;;;;;;4982700;28;20514;-59
2024/01/11 10:50:04;;;;;;;79.03;33.33;;;-1.70;99.90;;;;;;4986729;28;20418;-59
2024/01/11 10:52:48;;;;;;;93.30;34.97;;;-1.60;99.90;;;;;;4985067;28;20521;-60
2024/01/11 10:55:14;;;;;;;81.83;32.53;;;-1.50;99.90;;;;;;4987151;28;20508;-60
2024/01/11 10:57:41;;;;;;;73.87;31.13;;;-1.40;99.90;;;;;;4987827;28;20453;-58
2024/01/11 11:00:11;;;;;;;85.50;33.03;;;-1.30;99.90;;;;;;4986784;28;20501;-60
2024/01/11 11:02:37;;;;;;;85.03;32.60;;;-1.20;99.90;;;;;;4983221;28;20822;-59
2024/01/11 11:05:04;;;;;;;62.57;30.07;;;-1.20;99.90;;;;;;4980283;28;20445;-60
2024/01/11 11:07:31;;;;;;;75.83;32.20;;;-1.10;99.90;;;;;;4983213;28;20465;-58
2024/01/11 11:09:59;;;;;;;67.63;29.87;;;-1.00;99.90;;;;;;4981368;28;20588;-60
2024/01/11 11:12:25;;;;;;;71.80;30.10;;;-0.90;99.90;;;;;;4983504;28;20823;-60
2024/01/11 11:14:53;;;;;;;71.10;30.80;;;-0.70;99.90;;;;;;4985410;28;20442;-60
2024/01/11 11:17:18;;;;;;;68.80;29.57;;;-0.70;99.90;;;;;;4985297;28;20436;-60
2024/01/11 11:19:44;;;;;;;69.27;27.90;;;-0.60;99.90;;;;;;4985406;28;20453;-59
2024/01/11 11:22:14;;;;;;;66.90;28.43;;;-0.50;99.90;;;;;;4985343;28;20897;-60
2024/01/11 11:24:40;;;;;;;59.43;26.67;;;-0.50;99.90;;;;;;4980497;28;20753;-59
2024/01/11 11:27:07;;;;;;;57.30;26.40;;;-0.40;99.90;;;;;;4983909;28;20443;-61
2024/01/11 11:29:32;;;;;;;62.23;26.80;;;-0.30;99.90;;;;;;4985415;28;20264;-55
2024/01/11 11:31:59;;;;;;;64.00;26.47;;;-0.30;99.90;;;;;;4981578;28;20537;-57
2024/01/11 11:34:42;;;;;;;58.47;27.97;;;-0.20;99.90;;;;;;4982839;28;20187;-54
2024/01/11 11:37:09;;;;;;;56.33;24.83;;;-0.20;99.90;;;;;;4980127;28;20459;-56
2024/01/11 11:39:35;;;;;;;60.23;26.67;;;-0.10;99.90;;;;;;4986034;28;20487;-54
2024/01/11 11:42:01;;;;;;;69.80;31.23;;;-0.10;99.90;;;;;;4987829;28;20465;-56
2024/01/11 11:44:27;;;;;;;72.50;33.90;;;0.00;99.90;;;;;;4986483;28;20212;-56
2024/01/11 11:46:53;;;;;;;78.87;34.93;;;0.10;99.90;;;;;;4986902;28;20968;-57
2024/01/11 11:49:18;;;;;;;69.60;32.30;;;0.10;99.90;;;;;;4986922;28;20183;-56
2024/01/11 11:51:44;;;;;;;75.20;34.37;;;0.10;99.90;;;;;;4982946;28;20449;-57
2024/01/11 11:54:10;;;;;;;93.77;40.40;;;0.10;99.90;;;;;;4985741;28;20692;-55
2024/01/11 11:56:37;;;;;;;87.10;38.10;;;0.10;99.90;;;;;;4985454;28;20210;-56
2024/01/11 11:59:03;;;;;;;76.93;34.13;;;0.10;99.90;;;;;;4987409;28;20429;-57
2024/01/11 12:01:31;;;;;;;64.37;30.40;;;0.10;99.90;;;;;;4985091;28;20477;-55
2024/01/11 12:03:57;;;;;;;51.87;23.40;;;0.10;99.90;;;;;;4987400;28;20511;-55
2024/01/11 12:06:24;;;;;;;48.80;23.23;;;0.00;99.90;;;;;;4984025;28;21056;-56
2024/01/11 12:08:52;;;;;;;52.13;23.70;;;0.00;99.90;;;;;;4985211;28;20553;-54
2024/01/11 12:11:20;;;;;;;50.07;21.50;;;0.00;99.90;;;;;;4987221;28;20426;-55
2024/01/11 12:13:47;;;;;;;48.37;21.67;;;0.00;99.90;;;;;;4984685;28;20442;-55
2024/01/11 12:16:13;;;;;;;39.83;20.87;;;-0.10;99.90;;;;;;4982332;28;20462;-55
2024/01/11 12:18:39;;;;;;;43.93;21.07;;;-0.10;99.90;;;;;;4984029;28;20492;-56
2024/01/11 12:21:05;;;;;;;46.83;21.13;;;-0.10;99.90;;;;;;4980423;28;20286;-55